Time;durP1;ratioP1;P1;durP2;ratioP2;P2;SDS_P1;SDS_P2;PMS_P1;PMS_P2;Temp;Humidity;BMP_temperature;BMP_pressure;BME280_temperature;BME280_humidity;BME280_pressure;Samples;Min_cycle;Max_cycle;Signal;HPM_P1;HPM_P2
2021/05/03 00:00:07;;;;;;;0.95;0.65;;;13.70;99.90;;;;;;5007594;28;20034;-75
2021/05/03 00:02:35;;;;;;;3.63;0.88;;;13.90;99.90;;;;;;4989444;28;20484;-75
2021/05/03 00:05:01;;;;;;;2.20;1.15;;;13.70;99.90;;;;;;5014642;28;20029;-76
2021/05/03 00:07:27;;;;;;;2.95;0.85;;;13.60;99.90;;;;;;5015957;28;20068;-76
2021/05/03 00:09:53;;;;;;;4.00;0.88;;;13.60;99.90;;;;;;4999996;28;20033;-76
2021/05/03 00:12:19;;;;;;;9.10;1.40;;;13.60;99.90;;;;;;5011249;28;20029;-75
2021/05/03 00:14:44;;;;;;;0.98;0.77;;;13.60;99.90;;;;;;5013164;28;20036;-76
2021/05/03 00:17:10;;;;;;;4.03;0.50;;;13.60;99.90;;;;;;5013396;28;20032;-76
2021/05/03 00:19:36;;;;;;;2.97;0.77;;;13.50;99.90;;;;;;5012824;28;20029;-76
2021/05/03 00:22:03;;;;;;;0.85;0.57;;;13.30;99.90;;;;;;5014797;28;20448;-76
2021/05/03 00:24:29;;;;;;;0.43;0.43;;;13.10;99.90;;;;;;5013263;28;20044;-76
2021/05/03 00:26:55;;;;;;;1.17;0.52;;;12.90;99.90;;;;;;5017687;28;20102;-76
2021/05/03 00:29:20;;;;;;;1.55;0.47;;;13.00;99.90;;;;;;5015455;28;20034;-76
2021/05/03 00:31:46;;;;;;;1.20;0.73;;;13.00;99.90;;;;;;5014045;28;20066;-76
2021/05/03 00:34:13;;;;;;;1.65;1.55;;;12.90;99.90;;;;;;4994334;28;20026;-76
2021/05/03 00:36:39;;;;;;;1.75;0.43;;;13.00;99.90;;;;;;5011910;28;20036;-75
2021/05/03 00:39:05;;;;;;;2.40;0.77;;;13.00;99.90;;;;;;4995342;28;20037;-76
2021/05/03 00:41:31;;;;;;;2.10;0.60;;;12.90;99.90;;;;;;4995372;28;20018;-75
2021/05/03 00:43:56;;;;;;;0.88;0.68;;;12.80;99.90;;;;;;4995150;28;20030;-75
2021/05/03 00:46:23;;;;;;;0.95;0.60;;;12.90;99.90;;;;;;5010637;28;20100;-75
2021/05/03 00:48:49;;;;;;;2.13;0.50;;;13.00;99.90;;;;;;4997435;28;20040;-76
2021/05/03 00:51:15;;;;;;;1.15;0.75;;;13.00;99.90;;;;;;5008616;28;20428;-76
2021/05/03 00:53:41;;;;;;;6.63;0.68;;;12.90;99.90;;;;;;5014886;28;20033;-76
2021/05/03 00:56:08;;;;;;;1.48;0.50;;;12.70;99.90;;;;;;4998346;28;20026;-74
2021/05/03 00:58:34;;;;;;;7.72;0.75;;;12.70;99.90;;;;;;4980325;28;20050;-74
2021/05/03 01:01:01;;;;;;;3.15;2.88;;;12.50;99.90;;;;;;4998961;28;20031;-76
2021/05/03 01:03:26;;;;;;;0.88;0.52;;;12.50;99.90;;;;;;4998729;28;20045;-75
2021/05/03 01:05:52;;;;;;;1.92;0.80;;;12.40;99.90;;;;;;5010730;28;20101;-76
2021/05/03 01:08:18;;;;;;;0.63;0.30;;;12.50;99.90;;;;;;5018061;28;20029;-76
2021/05/03 01:10:43;;;;;;;0.47;0.28;;;12.50;99.90;;;;;;5017659;28;20081;-76
2021/05/03 01:13:09;;;;;;;3.30;0.50;;;12.30;99.90;;;;;;5015922;28;20087;-76
2021/05/03 01:15:35;;;;;;;3.17;0.30;;;12.00;99.90;;;;;;5014314;28;20041;-76
2021/05/03 01:18:04;;;;;;;1.55;0.30;;;12.00;99.90;;;;;;4996398;28;20030;-76
2021/05/03 01:20:35;;;;;;;5.40;0.50;;;11.90;99.90;;;;;;4996140;28;20038;-76
2021/05/03 01:23:01;;;;;;;0.60;0.60;;;11.80;99.90;;;;;;5014270;28;20018;-76
2021/05/03 01:25:31;;;;;;;0.20;0.20;;;11.60;99.90;;;;;;5013439;28;20032;-75
2021/05/03 01:28:02;;;;;;;2.80;0.35;;;11.60;99.90;;;;;;5013735;28;20033;-76
2021/05/03 01:30:36;;;;;;;0.77;0.40;;;11.60;99.90;;;;;;5002699;28;20031;-75
2021/05/03 01:33:04;;;;;;;1.83;0.30;;;11.60;99.90;;;;;;4977852;28;20527;-75
2021/05/03 01:35:29;;;;;;;1.83;0.50;;;11.50;99.90;;;;;;4976370;28;20364;-75
2021/05/03 01:37:57;;;;;;;1.08;0.50;;;11.40;99.90;;;;;;4976431;28;20496;-75
2021/05/03 01:40:25;;;;;;;2.50;0.35;;;11.50;99.90;;;;;;4996410;28;20057;-76
2021/05/03 01:42:51;;;;;;;0.25;0.25;;;11.50;99.90;;;;;;5013588;28;20021;-75
2021/05/03 01:45:26;;;;;;;0.47;0.20;;;11.70;99.90;;;;;;5013531;28;20025;-76
2021/05/03 01:47:52;;;;;;;0.13;0.13;;;11.60;99.90;;;;;;5013597;28;20048;-76
2021/05/03 01:50:22;;;;;;;0.20;0.20;;;11.50;99.90;;;;;;5013694;28;20032;-76
2021/05/03 01:52:51;;;;;;;0.30;0.30;;;11.60;99.90;;;;;;5013174;28;20441;-75
2021/05/03 01:55:18;;;;;;;1.33;0.88;;;11.60;99.90;;;;;;5013296;28;20029;-75
2021/05/03 01:57:45;;;;;;;0.30;0.30;;;11.60;99.90;;;;;;5013590;28;20045;-77
2021/05/03 02:00:11;;;;;;;0.20;0.20;;;11.80;99.90;;;;;;5012108;28;20068;-75
2021/05/03 02:02:37;;;;;;;0.40;0.40;;;11.60;99.90;;;;;;4993618;28;20054;-75
2021/05/03 02:05:04;;;;;;;0.20;0.20;;;11.60;99.90;;;;;;4976424;28;20049;-76
2021/05/03 02:07:29;;;;;;;0.57;0.40;;;11.60;99.90;;;;;;5010421;28;20392;-76
2021/05/03 02:09:55;;;;;;;1.05;0.25;;;11.60;99.90;;;;;;5000471;28;20054;-76
2021/05/03 02:12:21;;;;;;;1.67;0.20;;;11.70;99.90;;;;;;4996838;28;20481;-75
2021/05/03 02:14:46;;;;;;;1.05;0.30;;;11.80;99.90;;;;;;4997108;28;20038;-75
2021/05/03 02:17:12;;;;;;;0.65;0.35;;;11.90;99.90;;;;;;5009935;28;20030;-75
2021/05/03 02:19:38;;;;;;;0.30;0.30;;;11.80;99.90;;;;;;5019023;28;20037;-75
2021/05/03 02:22:04;;;;;;;1.48;0.17;;;11.80;99.90;;;;;;5012797;28;20030;-76
2021/05/03 02:24:30;;;;;;;0.20;0.20;;;11.70;99.90;;;;;;5012758;28;20040;-75
2021/05/03 02:26:56;;;;;;;0.40;0.40;;;11.90;99.90;;;;;;4994405;28;20030;-75
2021/05/03 02:29:22;;;;;;;0.93;0.40;;;11.90;99.90;;;;;;4993393;28;20118;-76
2021/05/03 02:31:47;;;;;;;0.30;0.30;;;11.90;99.90;;;;;;4993398;28;20504;-75
2021/05/03 02:34:13;;;;;;;0.25;0.25;;;11.90;99.90;;;;;;4993753;28;20530;-75
2021/05/03 02:36:39;;;;;;;0.20;0.20;;;11.70;99.90;;;;;;4998781;28;20105;-75
2021/05/03 02:39:05;;;;;;;0.38;0.38;;;11.70;99.90;;;;;;4993076;28;20107;-75
2021/05/03 02:41:32;;;;;;;0.38;0.38;;;11.60;99.90;;;;;;5008244;28;20380;-75
2021/05/03 02:43:59;;;;;;;0.47;0.45;;;11.60;99.90;;;;;;5012290;28;20018;-75
2021/05/03 02:46:27;;;;;;;1.45;0.30;;;11.60;99.90;;;;;;4992956;28;20025;-75
2021/05/03 02:48:53;;;;;;;1.13;0.43;;;11.60;99.90;;;;;;4992883;28;20034;-76
2021/05/03 02:51:19;;;;;;;0.17;0.17;;;11.50;99.90;;;;;;4994023;28;20036;-76
2021/05/03 02:53:44;;;;;;;0.45;0.45;;;11.40;99.90;;;;;;4994576;28;20030;-76
2021/05/03 02:56:10;;;;;;;0.70;0.20;;;11.50;99.90;;;;;;4993273;28;20030;-76
2021/05/03 02:58:36;;;;;;;0.25;0.25;;;11.20;99.90;;;;;;4993120;28;20089;-76
2021/05/03 03:01:01;;;;;;;0.20;0.17;;;11.00;99.90;;;;;;4976070;28;20109;-76
2021/05/03 03:03:27;;;;;;;2.40;0.20;;;10.90;99.90;;;;;;4992456;28;20150;-75
2021/05/03 03:05:53;;;;;;;0.75;0.57;;;10.90;99.90;;;;;;5001389;28;20382;-76
2021/05/03 03:08:19;;;;;;;0.20;0.20;;;10.80;99.90;;;;;;4975289;28;20033;-75
2021/05/03 03:10:44;;;;;;;0.20;0.20;;;10.90;99.90;;;;;;4975009;28;20030;-75
2021/05/03 03:13:10;;;;;;;1.25;0.32;;;10.70;99.90;;;;;;4992419;28;20073;-75
2021/05/03 03:15:36;;;;;;;2.65;0.50;;;10.50;99.90;;;;;;4992404;28;20029;-75
2021/05/03 03:18:03;;;;;;;3.40;0.52;;;10.40;99.90;;;;;;4992514;28;20023;-75
2021/05/03 03:20:30;;;;;;;0.68;0.50;;;10.40;99.90;;;;;;4992141;28;20092;-76
2021/05/03 03:22:55;;;;;;;0.45;0.45;;;10.50;99.90;;;;;;5007941;28;20102;-75
2021/05/03 03:25:22;;;;;;;0.30;0.30;;;10.50;99.90;;;;;;5011417;28;20026;-76
2021/05/03 03:27:48;;;;;;;2.78;0.35;;;10.40;99.90;;;;;;5012181;28;20108;-75
2021/05/03 03:30:15;;;;;;;0.22;0.22;;;10.40;99.90;;;;;;5011776;28;20097;-75
2021/05/03 03:32:44;;;;;;;2.40;0.75;;;10.40;99.90;;;;;;5001825;28;20058;-74
2021/05/03 03:35:15;;;;;;;0.38;0.20;;;10.40;99.90;;;;;;4993858;28;20026;-75
2021/05/03 03:37:42;;;;;;;3.50;0.50;;;10.20;99.90;;;;;;4996396;28;20109;-75
2021/05/03 03:40:09;;;;;;;0.30;0.30;;;10.10;99.90;;;;;;5002321;28;20025;-75
2021/05/03 03:42:35;;;;;;;0.60;0.45;;;10.10;99.90;;;;;;4999786;28;20030;-75
2021/05/03 03:45:01;;;;;;;0.40;0.40;;;10.20;99.90;;;;;;4992421;28;20393;-75
2021/05/03 03:47:27;;;;;;;0.30;0.30;;;10.10;99.90;;;;;;4991977;28;20428;-75
2021/05/03 03:49:53;;;;;;;0.30;0.30;;;10.10;99.90;;;;;;4995804;28;20038;-75
2021/05/03 03:52:20;;;;;;;0.20;0.20;;;10.10;99.90;;;;;;4986539;28;20042;-75
2021/05/03 03:54:46;;;;;;;1.13;0.70;;;10.10;99.90;;;;;;4992079;28;20109;-76
2021/05/03 03:57:12;;;;;;;2.88;1.58;;;10.10;99.90;;;;;;5004506;28;20060;-75
2021/05/03 03:59:41;;;;;;;0.30;0.30;;;10.20;99.90;;;;;;5007260;28;20046;-74
2021/05/03 04:02:08;;;;;;;2.05;0.38;;;10.10;99.90;;;;;;5012459;28;20018;-74
2021/05/03 04:04:35;;;;;;;1.17;0.40;;;10.10;99.90;;;;;;5012387;28;20025;-75
2021/05/03 04:09:49;;;;;;;0.52;0.30;;;10.20;99.90;;;;;;5004171;28;20018;-75
2021/05/03 04:25:41;;;;;;;0.30;0.30;;;10.10;99.90;;;;;;5012175;28;20049;-75
2021/05/03 04:28:07;;;;;;;0.90;0.68;;;10.10;99.90;;;;;;5000668;28;20030;-75
2021/05/03 04:30:34;;;;;;;0.35;0.35;;;10.00;99.90;;;;;;4991434;28;20027;-75
2021/05/03 04:33:00;;;;;;;0.30;0.30;;;10.00;99.90;;;;;;4974602;28;20260;-75
2021/05/03 04:35:26;;;;;;;0.63;0.38;;;10.00;99.90;;;;;;4994301;28;20026;-75
2021/05/03 04:37:52;;;;;;;0.50;0.50;;;10.00;99.90;;;;;;4994336;28;20451;-75
2021/05/03 04:40:18;;;;;;;1.02;0.40;;;9.90;99.90;;;;;;4993352;28;20026;-76
2021/05/03 04:42:44;;;;;;;5.53;0.55;;;10.00;99.90;;;;;;4975959;28;20026;-75
2021/05/03 04:45:11;;;;;;;1.33;0.40;;;10.00;99.90;;;;;;4992060;28;20354;-75
2021/05/03 04:47:38;;;;;;;0.57;0.57;;;10.00;99.90;;;;;;4992132;28;20050;-75
2021/05/03 04:50:05;;;;;;;0.40;0.40;;;10.00;99.90;;;;;;4992297;28;20034;-75
2021/05/03 04:52:32;;;;;;;0.20;0.20;;;10.00;99.90;;;;;;5008954;28;20076;-75
2021/05/03 04:54:57;;;;;;;0.47;0.30;;;10.00;99.90;;;;;;5012048;28;20034;-74
2021/05/03 04:57:23;;;;;;;0.38;0.38;;;10.10;99.90;;;;;;4996813;28;20627;-75
2021/05/03 04:59:49;;;;;;;0.70;0.50;;;10.10;99.90;;;;;;5001602;28;20033;-75
2021/05/03 05:02:15;;;;;;;0.30;0.30;;;10.20;99.90;;;;;;4998481;28;20019;-74
2021/05/03 05:04:40;;;;;;;0.45;0.25;;;10.20;99.90;;;;;;4987330;28;20384;-75
2021/05/03 05:07:06;;;;;;;0.30;0.30;;;10.20;99.90;;;;;;5014808;28;20026;-75
2021/05/03 05:09:32;;;;;;;0.45;0.45;;;10.30;99.90;;;;;;5014224;28;20445;-75
2021/05/03 05:11:57;;;;;;;0.57;0.57;;;10.30;99.90;;;;;;5008272;28;20030;-75
2021/05/03 05:14:23;;;;;;;0.20;0.20;;;10.30;99.90;;;;;;5007185;28;20033;-76
2021/05/03 05:16:50;;;;;;;0.32;0.32;;;10.40;99.90;;;;;;4995444;28;20053;-76
2021/05/03 05:19:16;;;;;;;0.55;0.55;;;10.50;99.90;;;;;;4981116;28;20034;-76
2021/05/03 05:21:43;;;;;;;0.82;0.40;;;10.60;99.90;;;;;;4994860;28;20042;-76
2021/05/03 05:24:09;;;;;;;1.83;0.50;;;10.60;99.90;;;;;;4995084;28;20081;-75
2021/05/03 05:26:35;;;;;;;1.50;0.50;;;10.60;99.90;;;;;;4995500;28;20019;-75
2021/05/03 05:29:01;;;;;;;0.60;0.60;;;10.80;99.90;;;;;;5010585;28;20026;-76
2021/05/03 05:31:26;;;;;;;0.30;0.30;;;10.90;99.90;;;;;;5014039;28;20105;-76
2021/05/03 05:33:52;;;;;;;0.50;0.50;;;11.00;99.90;;;;;;5015349;28;20033;-76
2021/05/03 05:36:18;;;;;;;0.63;0.50;;;11.00;99.90;;;;;;5007290;28;20030;-74
2021/05/03 05:38:44;;;;;;;2.75;0.88;;;11.00;99.90;;;;;;5011070;28;20033;-74
2021/05/03 05:41:13;;;;;;;0.93;0.93;;;11.00;99.90;;;;;;4979199;28;20034;-74
2021/05/03 05:43:40;;;;;;;0.88;0.88;;;10.90;99.90;;;;;;4998651;28;20019;-74
2021/05/03 05:46:07;;;;;;;0.60;0.60;;;10.90;99.90;;;;;;4997105;28;20053;-75
2021/05/03 05:48:33;;;;;;;0.77;0.68;;;10.90;99.90;;;;;;4978154;28;20049;-74
2021/05/03 05:50:58;;;;;;;1.15;1.02;;;10.90;99.90;;;;;;4984198;28;20026;-75
2021/05/03 05:53:25;;;;;;;318.05;74.45;;;10.90;99.90;;;;;;4978043;28;20042;-76
2021/05/03 05:55:51;;;;;;;36.25;4.22;;;11.00;99.90;;;;;;4994688;28;20109;-74
2021/05/03 05:58:16;;;;;;;103.47;11.00;;;11.00;99.90;;;;;;4993855;28;20092;-75
2021/05/03 06:00:42;;;;;;;56.13;4.57;;;11.00;99.90;;;;;;4993554;28;20031;-75
2021/05/03 06:03:08;;;;;;;17.50;1.58;;;11.00;99.90;;;;;;4996168;28;20027;-75
2021/05/03 06:05:33;;;;;;;31.02;3.75;;;11.00;99.90;;;;;;4996506;28;20030;-75
2021/05/03 06:07:59;;;;;;;11.90;0.68;;;11.00;99.90;;;;;;4995836;28;20022;-76
2021/05/03 06:10:25;;;;;;;2.97;0.60;;;11.00;99.90;;;;;;4995165;28;20042;-75
2021/05/03 06:12:51;;;;;;;1.48;0.63;;;11.00;99.90;;;;;;4996106;28;20030;-75
2021/05/03 06:15:16;;;;;;;0.95;0.55;;;11.00;99.90;;;;;;4998431;28;20029;-75
2021/05/03 06:17:42;;;;;;;0.90;0.32;;;11.10;99.90;;;;;;5003341;28;20029;-74
2021/05/03 06:20:08;;;;;;;1.33;0.90;;;11.10;99.90;;;;;;5015364;28;20026;-74
2021/05/03 06:22:35;;;;;;;0.73;0.50;;;11.10;99.90;;;;;;5012905;28;20373;-74
2021/05/03 06:25:02;;;;;;;0.55;0.55;;;11.20;99.90;;;;;;5013086;28;20045;-74
2021/05/03 06:27:28;;;;;;;1.77;0.77;;;11.30;99.90;;;;;;5013064;28;20026;-75
2021/05/03 06:29:54;;;;;;;9.77;0.50;;;11.30;99.90;;;;;;4994317;28;20036;-75
2021/05/03 06:32:20;;;;;;;1.60;1.10;;;11.30;99.90;;;;;;5016350;28;20101;-75
2021/05/03 06:34:45;;;;;;;6.13;0.40;;;11.30;99.90;;;;;;4983749;28;20030;-76
2021/05/03 06:37:12;;;;;;;5.68;1.63;;;11.30;99.90;;;;;;4996794;28;20496;-75
2021/05/03 06:39:39;;;;;;;0.68;0.65;;;11.30;99.90;;;;;;4995009;28;20034;-76
2021/05/03 06:42:05;;;;;;;6.03;0.50;;;11.50;99.90;;;;;;5010702;28;20022;-76
2021/05/03 06:44:34;;;;;;;0.98;0.77;;;11.50;99.90;;;;;;5011530;28;20149;-76
2021/05/03 06:47:00;;;;;;;2.80;2.38;;;11.60;99.90;;;;;;5001744;28;20104;-75
2021/05/03 06:49:26;;;;;;;1.33;0.70;;;11.60;99.90;;;;;;4994613;28;20034;-76
2021/05/03 06:51:52;;;;;;;5.93;0.57;;;11.70;99.90;;;;;;4979491;28;20093;-76
2021/05/03 06:54:18;;;;;;;3.22;1.33;;;11.60;99.90;;;;;;5004716;28;20443;-76
2021/05/03 06:56:44;;;;;;;5.25;0.70;;;11.70;99.90;;;;;;5007062;28;20025;-77
2021/05/03 06:59:09;;;;;;;9.48;2.00;;;11.80;99.90;;;;;;4984104;28;20038;-77
2021/05/03 07:01:39;;;;;;;3.67;0.70;;;11.90;99.90;;;;;;5002153;28;20114;-79
2021/05/03 07:04:05;;;;;;;3.70;1.15;;;12.10;99.90;;;;;;4990434;28;20022;-79
2021/05/03 07:06:31;;;;;;;0.85;0.80;;;12.20;99.90;;;;;;5013280;28;20431;-77
2021/05/03 07:08:58;;;;;;;0.70;0.60;;;12.20;99.90;;;;;;5007351;28;20029;-78
2021/05/03 07:11:28;;;;;;;5.80;1.65;;;12.30;99.90;;;;;;5010803;28;20512;-76
2021/05/03 07:13:55;;;;;;;2.72;0.88;;;12.50;99.90;;;;;;5009569;28;20121;-77
2021/05/03 07:16:20;;;;;;;1.38;0.60;;;12.70;99.90;;;;;;5007684;28;20135;-77
2021/05/03 07:18:46;;;;;;;1.38;0.73;;;13.00;99.90;;;;;;4997042;28;20649;-76
2021/05/03 07:21:12;;;;;;;0.68;0.68;;;13.20;99.90;;;;;;4992815;28;20034;-76
2021/05/03 07:23:41;;;;;;;1.27;0.90;;;13.30;99.90;;;;;;4994109;28;20068;-76
2021/05/03 07:26:09;;;;;;;4.68;0.77;;;13.40;99.90;;;;;;4993381;28;20034;-76
2021/05/03 07:28:35;;;;;;;4.00;0.70;;;13.20;99.90;;;;;;4993065;28;20080;-75
2021/05/03 07:31:01;;;;;;;0.47;0.45;;;13.20;99.90;;;;;;4992837;28;20015;-75
2021/05/03 07:33:27;;;;;;;0.68;0.40;;;13.40;99.90;;;;;;5008878;28;20399;-76
2021/05/03 07:35:54;;;;;;;1.50;0.57;;;13.70;99.90;;;;;;5023062;28;20621;-77
2021/05/03 07:38:20;;;;;;;3.90;0.85;;;13.80;99.90;;;;;;5023450;28;20050;-77
2021/05/03 07:40:46;;;;;;;19.52;1.77;;;13.70;99.90;;;;;;5003352;28;20262;-76
2021/05/03 07:43:12;;;;;;;13.55;0.88;;;13.60;99.90;;;;;;5020918;28;20070;-78
2021/05/03 07:45:38;;;;;;;7.13;0.60;;;13.60;99.90;;;;;;5020047;28;20018;-76
2021/05/03 07:48:04;;;;;;;73.25;57.60;;;13.60;99.90;;;;;;5016765;28;20396;-80
2021/05/03 07:50:30;;;;;;;38.50;34.58;;;13.70;99.90;;;;;;5012398;28;20026;-77
2021/05/03 07:52:57;;;;;;;22.65;15.27;;;13.80;99.90;;;;;;5012869;28;20029;-78
2021/05/03 07:55:24;;;;;;;6.10;2.67;;;14.00;99.90;;;;;;5013788;28;20522;-78
2021/05/03 07:57:51;;;;;;;27.17;8.23;;;14.00;99.90;;;;;;5004438;28;20030;-77
2021/05/03 08:00:18;;;;;;;11.45;4.90;;;14.00;99.90;;;;;;4991661;28;20018;-77
2021/05/03 08:02:44;;;;;;;13.90;6.32;;;14.20;99.90;;;;;;4992221;28;20019;-76
2021/05/03 08:05:10;;;;;;;0.45;0.45;;;14.10;99.90;;;;;;5002529;28;20473;-77
2021/05/03 08:07:37;;;;;;;76.20;37.53;;;14.00;99.90;;;;;;5008038;28;20361;-76
2021/05/03 08:10:04;;;;;;;0.52;0.52;;;14.00;99.90;;;;;;5008042;28;20109;-76
2021/05/03 08:12:29;;;;;;;3.28;2.97;;;14.00;99.90;;;;;;5011941;28;20034;-76
2021/05/03 08:14:57;;;;;;;0.60;0.60;;;13.90;99.90;;;;;;5012254;28;20053;-76
2021/05/03 08:17:23;;;;;;;9.38;5.55;;;14.00;99.90;;;;;;5014514;28;20045;-76
2021/05/03 08:19:48;;;;;;;1.58;1.48;;;14.30;99.90;;;;;;5027696;28;20030;-76
2021/05/03 08:22:14;;;;;;;2.75;1.48;;;14.20;99.90;;;;;;5005035;28;20030;-75
2021/05/03 08:24:40;;;;;;;6.95;3.88;;;14.40;99.90;;;;;;5019804;28;20495;-77
2021/05/03 08:27:07;;;;;;;9.23;6.15;;;14.50;99.90;;;;;;5016807;28;20412;-76
2021/05/03 08:29:34;;;;;;;31.42;24.08;;;14.80;99.90;;;;;;5015910;28;20028;-76
2021/05/03 08:32:01;;;;;;;24.55;18.02;;;14.80;99.90;;;;;;4998268;28;20329;-76
2021/05/03 08:34:27;;;;;;;18.27;16.15;;;14.90;99.90;;;;;;5007891;28;20042;-76
2021/05/03 08:36:56;;;;;;;7.55;4.65;;;15.00;99.90;;;;;;5017060;28;20021;-76
2021/05/03 08:39:23;;;;;;;11.50;6.63;;;15.10;99.90;;;;;;4998425;28;20026;-77
2021/05/03 08:41:49;;;;;;;9.93;6.10;;;15.00;99.90;;;;;;5015515;28;20384;-76
2021/05/03 08:44:15;;;;;;;8.35;1.85;;;15.10;99.90;;;;;;5015693;28;20017;-77
2021/05/03 08:46:44;;;;;;;10.35;5.75;;;15.00;99.90;;;;;;5015387;28;20052;-76
2021/05/03 08:51:45;;;;;;;11.73;8.93;;;15.10;99.90;;;;;;5015845;28;20485;-76
2021/05/03 08:54:21;;;;;;;6.82;4.20;;;15.40;99.90;;;;;;5016288;28;20022;-76
2021/05/03 08:56:47;;;;;;;8.57;5.47;;;15.40;99.90;;;;;;5015236;28;20018;-77
2021/05/03 08:59:13;;;;;;;24.98;14.82;;;15.50;99.90;;;;;;5015410;28;20026;-77
2021/05/03 09:01:46;;;;;;;1.70;0.80;;;15.50;99.90;;;;;;4997398;28;20071;-75
2021/05/03 09:04:17;;;;;;;7.05;4.30;;;15.40;99.90;;;;;;5015374;28;20409;-79
2021/05/03 09:07:00;;;;;;;2.78;0.77;;;15.40;99.90;;;;;;5015248;28;20539;-77
2021/05/03 09:09:49;;;;;;;12.10;10.68;;;15.40;99.90;;;;;;5014625;28;20122;-78
2021/05/03 09:12:18;;;;;;;6.53;5.93;;;15.40;99.90;;;;;;4996870;28;20033;-76
2021/05/03 09:14:53;;;;;;;5.38;4.88;;;15.60;99.90;;;;;;4996963;28;20029;-75
2021/05/03 09:17:27;;;;;;;9.13;2.45;;;15.50;99.90;;;;;;4996673;28;20044;-77
2021/05/03 09:19:55;;;;;;;1.95;1.20;;;15.60;99.90;;;;;;5014268;28;20029;-79
2021/05/03 09:22:41;;;;;;;3.60;2.17;;;15.60;99.90;;;;;;4996705;28;20508;-75
2021/05/03 09:25:27;;;;;;;6.72;0.70;;;15.80;99.90;;;;;;5014544;28;20105;-77
2021/05/03 09:28:19;;;;;;;11.73;7.60;;;15.90;99.90;;;;;;5014611;28;20026;-77
2021/05/03 09:30:48;;;;;;;3.72;3.33;;;16.20;99.90;;;;;;5014296;28;20164;-77
2021/05/03 09:33:18;;;;;;;2.45;1.08;;;16.20;99.90;;;;;;4996596;28;20129;-77
2021/05/03 09:35:46;;;;;;;2.47;1.42;;;16.20;99.90;;;;;;5013297;28;20105;-79
2021/05/03 09:38:38;;;;;;;2.40;0.68;;;16.20;99.90;;;;;;5014018;28;20041;-78
2021/05/03 09:41:19;;;;;;;4.70;1.23;;;16.20;99.90;;;;;;5015013;28;20049;-76
2021/05/03 09:43:50;;;;;;;1.70;1.10;;;16.20;99.90;;;;;;5013978;28;20026;-76
2021/05/03 09:46:29;;;;;;;3.28;2.08;;;16.40;99.90;;;;;;5015470;28;20022;-77
2021/05/03 09:49:16;;;;;;;0.70;0.60;;;16.60;99.90;;;;;;5014036;28;20510;-78
2021/05/03 09:51:51;;;;;;;0.55;0.55;;;16.80;99.90;;;;;;5013914;28;20033;-75
2021/05/03 09:54:25;;;;;;;1.33;0.90;;;16.70;99.90;;;;;;5013821;28;20133;-77
2021/05/03 09:56:51;;;;;;;4.03;0.60;;;16.60;99.90;;;;;;5013776;28;20121;-76
2021/05/03 09:59:32;;;;;;;4.90;0.68;;;16.60;99.90;;;;;;4996025;28;20113;-76
2021/05/03 10:02:36;;;;;;;1.15;0.82;;;16.40;99.90;;;;;;5013458;28;20018;-78
2021/05/03 10:05:24;;;;;;;0.98;0.90;;;16.60;99.90;;;;;;4971735;28;20117;-76
2021/05/03 10:07:54;;;;;;;4.45;0.95;;;16.90;99.90;;;;;;5013428;28;20034;-77
2021/05/03 10:10:35;;;;;;;0.77;0.70;;;17.00;99.90;;;;;;5014008;28;20459;-79
2021/05/03 10:13:01;;;;;;;1.15;1.05;;;17.10;99.90;;;;;;5013985;28;20392;-77
2021/05/03 10:15:27;;;;;;;1.85;1.10;;;17.20;99.90;;;;;;5013651;28;20022;-77
2021/05/03 10:17:53;;;;;;;1.35;1.13;;;17.20;99.90;;;;;;4996497;28;20052;-76
2021/05/03 10:20:20;;;;;;;0.93;0.93;;;17.50;99.90;;;;;;5014499;28;20168;-75
2021/05/03 10:22:55;;;;;;;5.95;1.17;;;17.50;99.90;;;;;;5014188;28;20050;-76
2021/05/03 10:25:21;;;;;;;1.48;1.00;;;17.30;99.90;;;;;;5013587;28;20017;-76
2021/05/03 10:27:47;;;;;;;1.75;0.95;;;17.30;99.90;;;;;;5013805;28;20144;-77
2021/05/03 10:30:21;;;;;;;6.43;2.15;;;17.40;99.90;;;;;;5014284;28;20456;-76
2021/05/03 10:33:03;;;;;;;0.55;0.55;;;17.40;99.90;;;;;;5014256;28;20105;-76
2021/05/03 10:35:40;;;;;;;3.33;0.88;;;17.20;99.90;;;;;;5014178;28;20022;-77
2021/05/03 10:38:26;;;;;;;0.50;0.50;;;17.30;99.90;;;;;;5013028;28;20116;-76
2021/05/03 10:40:53;;;;;;;0.55;0.55;;;17.20;99.90;;;;;;5011733;28;20064;-77
2021/05/03 10:43:22;;;;;;;2.17;0.85;;;17.50;99.90;;;;;;4996268;28;20022;-78
2021/05/03 10:48:35;;;;;;;2.05;1.02;;;17.60;99.90;;;;;;5010732;28;20053;-77
2021/05/03 10:51:02;;;;;;;2.05;0.98;;;17.60;99.90;;;;;;5013368;28;20029;-76
2021/05/03 10:53:42;;;;;;;2.92;0.60;;;17.70;99.90;;;;;;5014517;28;20025;-76
2021/05/03 10:56:10;;;;;;;0.98;0.50;;;17.80;99.90;;;;;;5012780;28;20022;-76
2021/05/03 10:58:54;;;;;;;1.48;0.95;;;17.90;99.90;;;;;;5012236;28;20069;-76
2021/05/03 11:01:20;;;;;;;0.98;0.95;;;18.00;99.90;;;;;;4994462;28;20439;-77
2021/05/03 11:03:55;;;;;;;1.80;0.80;;;18.10;99.90;;;;;;5011979;28;20025;-74
2021/05/03 11:06:36;;;;;;;1.77;0.80;;;18.20;99.90;;;;;;5011724;28;20468;-73
2021/05/03 11:09:42;;;;;;;1.02;1.02;;;18.00;99.90;;;;;;4992258;28;20033;-73
2021/05/03 11:12:12;;;;;;;2.95;0.70;;;17.90;99.90;;;;;;5012118;28;20033;-74
2021/05/03 11:14:40;;;;;;;0.98;0.60;;;17.80;99.90;;;;;;5012382;28;20022;-75
2021/05/03 11:20:14;;;;;;;2.05;0.90;;;17.70;99.90;;;;;;5010039;28;20129;-74
2021/05/03 11:23:12;;;;;;;0.88;0.60;;;17.60;99.90;;;;;;5011564;28;20037;-72
2021/05/03 11:25:37;;;;;;;2.20;1.23;;;17.50;99.90;;;;;;5010643;28;20407;-74
2021/05/03 11:28:15;;;;;;;1.30;0.93;;;17.30;99.90;;;;;;5011325;28;20014;-72
2021/05/03 11:35:40;;;;;;;1.10;0.85;;;17.40;99.90;;;;;;5011647;28;20056;-72
2021/05/03 11:46:08;;;;;;;1.13;0.73;;;17.90;99.90;;;;;;5011299;28;20105;-74
2021/05/03 11:48:34;;;;;;;0.52;0.52;;;17.70;99.90;;;;;;5011887;28;20034;-73
2021/05/03 11:51:10;;;;;;;1.00;0.85;;;17.70;99.90;;;;;;5011861;28;20072;-74
2021/05/03 11:53:39;;;;;;;0.75;0.65;;;17.80;99.90;;;;;;4994078;28;20484;-74
2021/05/03 11:56:28;;;;;;;2.25;0.50;;;18.20;99.90;;;;;;5011125;28;20415;-74
2021/05/03 11:58:59;;;;;;;5.68;1.05;;;18.30;99.90;;;;;;5011122;28;20030;-74
2021/05/03 12:01:27;;;;;;;1.35;0.90;;;18.30;99.90;;;;;;5011165;28;20448;-74
2021/05/03 12:03:59;;;;;;;10.15;1.40;;;18.30;99.90;;;;;;5010745;28;20476;-76
2021/05/03 12:06:38;;;;;;;1.45;0.63;;;18.50;99.90;;;;;;5003134;28;20015;-74
2021/05/03 12:09:14;;;;;;;0.82;0.82;;;18.60;99.90;;;;;;4991231;28;20034;-74
2021/05/03 12:11:56;;;;;;;1.38;0.63;;;18.70;99.90;;;;;;4991421;28;20062;-75
2021/05/03 12:14:57;;;;;;;1.35;0.75;;;18.80;99.90;;;;;;4991219;28;20026;-73
2021/05/03 12:17:26;;;;;;;1.60;0.90;;;18.80;99.90;;;;;;4893283;29;20105;-74
2021/05/03 12:20:14;;;;;;;0.70;0.70;;;18.70;99.90;;;;;;4972734;28;20048;-74
2021/05/03 12:22:51;;;;;;;4.38;0.80;;;18.90;99.90;;;;;;4991612;28;20543;-76
2021/05/03 12:25:17;;;;;;;10.57;1.70;;;18.90;99.90;;;;;;4993944;28;20107;-75
2021/05/03 12:27:43;;;;;;;4.78;1.10;;;18.70;99.90;;;;;;4991130;28;20106;-77
2021/05/03 12:30:10;;;;;;;2.88;0.88;;;18.70;99.90;;;;;;5001245;28;20022;-75
2021/05/03 12:32:38;;;;;;;1.55;0.35;;;18.50;99.90;;;;;;5010610;28;20026;-74
2021/05/03 12:35:17;;;;;;;2.80;0.60;;;18.00;99.90;;;;;;5010378;28;20030;-76
2021/05/03 12:37:43;;;;;;;1.40;0.50;;;17.70;99.90;;;;;;5010457;28;20029;-75
2021/05/03 12:40:10;;;;;;;1.17;0.70;;;17.80;99.90;;;;;;4992126;28;20025;-76
2021/05/03 12:42:40;;;;;;;0.65;0.65;;;18.10;99.90;;;;;;5008850;28;20022;-74
2021/05/03 12:51:51;;;;;;;0.90;0.60;;;18.60;99.90;;;;;;4948956;29;20035;-74
2021/05/03 12:57:21;;;;;;;1.42;1.30;;;18.70;99.90;;;;;;4990347;28;20037;-75
2021/05/03 13:05:05;;;;;;;1.85;1.00;;;18.80;99.90;;;;;;4991703;28;20022;-74
2021/05/03 13:29:59;;;;;;;2.50;0.80;;;19.80;99.90;;;;;;4994044;28;20038;-73
2021/05/03 13:32:29;;;;;;;0.45;0.40;;;19.80;99.90;;;;;;4993084;28;20337;-74
2021/05/03 13:34:57;;;;;;;0.95;0.85;;;19.20;99.90;;;;;;4993716;28;20101;-74
2021/05/03 13:37:23;;;;;;;0.82;0.40;;;19.20;99.90;;;;;;5000408;28;20033;-75
2021/05/03 13:39:49;;;;;;;4.15;0.73;;;19.30;99.90;;;;;;5013730;28;20053;-74
2021/05/03 13:42:15;;;;;;;6.15;0.68;;;19.40;99.90;;;;;;5013262;28;20080;-74
2021/05/03 13:44:43;;;;;;;5.63;0.80;;;19.50;99.90;;;;;;4995737;28;20546;-76
2021/05/03 13:47:09;;;;;;;2.60;0.50;;;19.40;99.90;;;;;;5013053;28;20022;-75
2021/05/03 13:49:35;;;;;;;0.95;0.63;;;19.50;99.90;;;;;;5006670;28;20516;-74
2021/05/03 13:52:02;;;;;;;2.72;0.70;;;19.60;99.90;;;;;;4993837;28;20397;-75
2021/05/03 13:54:28;;;;;;;0.47;0.38;;;19.60;99.90;;;;;;4993909;28;20029;-75
2021/05/03 13:57:07;;;;;;;1.05;0.98;;;19.40;99.90;;;;;;4993997;28;20022;-75
2021/05/03 13:59:34;;;;;;;1.23;0.40;;;19.30;99.90;;;;;;4994034;28;20018;-75
2021/05/03 14:02:02;;;;;;;0.55;0.50;;;19.40;99.90;;;;;;4993313;28;20026;-75
2021/05/03 14:04:28;;;;;;;1.67;0.63;;;19.50;99.90;;;;;;4993457;28;20438;-76
2021/05/03 14:06:57;;;;;;;0.40;0.40;;;19.70;99.90;;;;;;4993692;28;20057;-76